PWSweather.com
Personal Weather Stations
Station Observations
PRATO
PratoIT 59100

PratoIT 59100

Lat: 43.8956799, Lon: 11.0845155

Elevation: 164

Station Type: Davis Vantage Vue

http://www.meteoprato.it

Latest ConditionsUpdated 5:20:00 AM GMT+01:01 Friday, Dec 14, 2018
Currently Today's Max Today's Min Today's Average
Temperature 41.0°F5.0°C 42.7°F5.9°C 41.0°F5.0°C 42.3°F5.7°C
Dew Point 31.6°F-0.2°C 32.3°F0.2°C 31.1°F-0.5°C 31.7°F-0.2°C
Winds 14.3 mph NE23.0 kmh NE 15.6 mph -25.1 kmh - - 13.5 mph 21.7 kmh
Wind Gusts 29.0 mph46.7 kmh 32.0 mph51.5 kmh - -
Humidity 69% 69% 64% 66%
Pressure 29.84 in1010.5 mb 29.87 in1011.5 mb 29.84 in1010.5 mb -
Hour Temp Dew Point Humidity Winds Wind Gusts Pressure Precip Precip Rate Daily Precip Total
05:20 AM 41.0°F5.0°C 31.6°F-0.2°C 69% 14.3 mph NE23.0 kmh NE 29.0 mph46.7 kmh 29.84 in1010.5 mb 0.00 in0.0 mm 0.00 in0.0 mm 0.00 in0.0 mm
05:15 AM 41.1°F5.1°C 31.7°F-0.2°C 69% 14.1 mph NE22.7 kmh NE 29.0 mph46.7 kmh 29.84 in1010.5 mb 0.00 in0.0 mm 0.00 in0.0 mm 0.00 in0.0 mm
05:10 AM 41.1°F5.1°C 31.7°F-0.2°C 69% 14.5 mph NE23.3 kmh NE 25.0 mph40.2 kmh 29.84 in1010.5 mb 0.00 in0.0 mm 0.00 in0.0 mm 0.00 in0.0 mm
05:05 AM 41.2°F5.1°C 31.4°F-0.3°C 68% 15.0 mph NE24.1 kmh NE 28.0 mph45.1 kmh 29.84 in1010.5 mb 0.00 in0.0 mm 0.00 in0.0 mm 0.00 in0.0 mm
05:00 AM 41.2°F5.1°C 31.4°F-0.3°C 68% 15.0 mph NE24.1 kmh NE 32.0 mph51.5 kmh 29.84 in1010.5 mb 0.00 in0.0 mm 0.00 in0.0 mm 0.00 in0.0 mm
04:55 AM 41.3°F5.2°C 31.5°F-0.3°C 68% 15.0 mph NE24.1 kmh NE 32.0 mph51.5 kmh 29.84 in1010.5 mb 0.00 in0.0 mm 0.00 in0.0 mm 0.00 in0.0 mm
04:50 AM 41.4°F5.2°C 31.6°F-0.2°C 68% 14.9 mph NE24.0 kmh NE 31.0 mph49.9 kmh 29.84 in1010.5 mb 0.00 in0.0 mm 0.00 in0.0 mm 0.00 in0.0 mm
04:45 AM 41.5°F5.3°C 31.7°F-0.2°C 68% 14.8 mph NE23.8 kmh NE 31.0 mph49.9 kmh 29.84 in1010.5 mb 0.00 in0.0 mm 0.00 in0.0 mm 0.00 in0.0 mm
04:40 AM 41.6°F5.3°C 31.8°F-0.1°C 68% 15.4 mph NE24.8 kmh NE 27.0 mph43.5 kmh 29.84 in1010.5 mb 0.00 in0.0 mm 0.00 in0.0 mm 0.00 in0.0 mm
04:35 AM 41.8°F5.4°C 31.6°F-0.2°C 67% 15.6 mph NE25.1 kmh NE 27.0 mph43.5 kmh 29.84 in1010.5 mb 0.00 in0.0 mm 0.00 in0.0 mm 0.00 in0.0 mm
04:30 AM 41.9°F5.5°C 31.7°F-0.2°C 67% 15.0 mph NE24.1 kmh NE 26.0 mph41.8 kmh 29.84 in1010.5 mb 0.00 in0.0 mm 0.00 in0.0 mm 0.00 in0.0 mm
04:25 AM 42.0°F5.6°C 31.5°F-0.3°C 66% 14.3 mph NE23.0 kmh NE 28.0 mph45.1 kmh 29.84 in1010.5 mb 0.00 in0.0 mm 0.00 in0.0 mm 0.00 in0.0 mm
04:20 AM 42.2°F5.7°C 31.3°F-0.4°C 65% 13.6 mph NE21.9 kmh NE 28.0 mph45.1 kmh 29.84 in1010.5 mb 0.00 in0.0 mm 0.00 in0.0 mm 0.00 in0.0 mm
04:15 AM 42.3°F5.7°C 31.4°F-0.3°C 65% 13.2 mph NE21.2 kmh NE 24.0 mph38.6 kmh 29.84 in1010.5 mb 0.00 in0.0 mm 0.00 in0.0 mm 0.00 in0.0 mm
04:10 AM 42.4°F5.8°C 31.1°F-0.5°C 64% 13.0 mph NE20.9 kmh NE 24.0 mph38.6 kmh 29.84 in1010.5 mb 0.00 in0.0 mm 0.00 in0.0 mm 0.00 in0.0 mm
04:05 AM 42.4°F5.8°C 31.1°F-0.5°C 64% 13.0 mph NE20.9 kmh NE 24.0 mph38.6 kmh 29.84 in1010.5 mb 0.00 in0.0 mm 0.00 in0.0 mm 0.00 in0.0 mm
04:00 AM 42.4°F5.8°C 31.1°F-0.5°C 64% 13.0 mph NE20.9 kmh NE 23.0 mph37.0 kmh 29.84 in1010.5 mb 0.00 in0.0 mm 0.00 in0.0 mm 0.00 in0.0 mm
03:55 AM 42.5°F5.8°C 31.2°F-0.4°C 64% 13.0 mph NE20.9 kmh NE 23.0 mph37.0 kmh 29.84 in1010.5 mb 0.00 in0.0 mm 0.00 in0.0 mm 0.00 in0.0 mm
03:50 AM 42.4°F5.8°C 31.1°F-0.5°C 64% 13.1 mph NE21.1 kmh NE 25.0 mph40.2 kmh 29.84 in1010.5 mb 0.00 in0.0 mm 0.00 in0.0 mm 0.00 in0.0 mm
03:45 AM 42.4°F5.8°C 31.1°F-0.5°C 64% 13.2 mph NE21.2 kmh NE 25.0 mph40.2 kmh 29.84 in1010.5 mb 0.00 in0.0 mm 0.00 in0.0 mm 0.00 in0.0 mm
03:40 AM 42.5°F5.8°C 31.2°F-0.4°C 64% 13.4 mph NE21.6 kmh NE 22.0 mph35.4 kmh 29.84 in1010.5 mb 0.00 in0.0 mm 0.00 in0.0 mm 0.00 in0.0 mm
03:35 AM 42.4°F5.8°C 31.1°F-0.5°C 64% 13.7 mph NE22.0 kmh NE 25.0 mph40.2 kmh 29.84 in1010.5 mb 0.00 in0.0 mm 0.00 in0.0 mm 0.00 in0.0 mm
03:30 AM 42.4°F5.8°C 31.1°F-0.5°C 64% 13.9 mph NE22.4 kmh NE 25.0 mph40.2 kmh 29.84 in1010.5 mb 0.00 in0.0 mm 0.00 in0.0 mm 0.00 in0.0 mm
03:25 AM 42.5°F5.8°C 31.6°F-0.2°C 65% 13.9 mph NE22.4 kmh NE 25.0 mph40.2 kmh 29.84 in1010.5 mb 0.00 in0.0 mm 0.00 in0.0 mm 0.00 in0.0 mm
03:20 AM 42.5°F5.8°C 31.6°F-0.2°C 65% 13.8 mph NE22.2 kmh NE 25.0 mph40.2 kmh 29.84 in1010.5 mb 0.00 in0.0 mm 0.00 in0.0 mm 0.00 in0.0 mm
03:15 AM 42.5°F5.8°C 31.6°F-0.2°C 65% 13.9 mph NE22.4 kmh NE 25.0 mph40.2 kmh 29.85 in1010.8 mb 0.00 in0.0 mm 0.00 in0.0 mm 0.00 in0.0 mm
03:10 AM 42.5°F5.8°C 31.6°F-0.2°C 65% 14.0 mph NE22.5 kmh NE 22.0 mph35.4 kmh 29.85 in1010.8 mb 0.00 in0.0 mm 0.00 in0.0 mm 0.00 in0.0 mm
03:05 AM 42.5°F5.8°C 31.6°F-0.2°C 65% 13.4 mph NE21.6 kmh NE 24.0 mph38.6 kmh 29.85 in1010.8 mb 0.00 in0.0 mm 0.00 in0.0 mm 0.00 in0.0 mm
03:00 AM 42.5°F5.8°C 31.6°F-0.2°C 65% 12.9 mph NE20.8 kmh NE 24.0 mph38.6 kmh 29.85 in1010.8 mb 0.00 in0.0 mm 0.00 in0.0 mm 0.00 in0.0 mm
02:55 AM 42.5°F5.8°C 31.6°F-0.2°C 65% 13.0 mph NE20.9 kmh NE 24.0 mph38.6 kmh 29.86 in1011.2 mb 0.00 in0.0 mm 0.00 in0.0 mm 0.00 in0.0 mm
02:50 AM 42.5°F5.8°C 31.6°F-0.2°C 65% 12.7 mph NE20.4 kmh NE 24.0 mph38.6 kmh 29.86 in1011.2 mb 0.00 in0.0 mm 0.00 in0.0 mm 0.00 in0.0 mm
02:45 AM 42.6°F5.9°C 31.7°F-0.2°C 65% 12.2 mph NE19.6 kmh NE 23.0 mph37.0 kmh 29.86 in1011.2 mb 0.00 in0.0 mm 0.00 in0.0 mm 0.00 in0.0 mm
02:40 AM 42.6°F5.9°C 31.7°F-0.2°C 65% 12.0 mph NE19.3 kmh NE 20.0 mph32.2 kmh 29.86 in1011.2 mb 0.00 in0.0 mm 0.00 in0.0 mm 0.00 in0.0 mm
02:35 AM 42.6°F5.9°C 31.7°F-0.2°C 65% 12.3 mph NE19.8 kmh NE 21.0 mph33.8 kmh 29.86 in1011.2 mb 0.00 in0.0 mm 0.00 in0.0 mm 0.00 in0.0 mm
02:30 AM 42.6°F5.9°C 31.7°F-0.2°C 65% 13.3 mph NE21.4 kmh NE 22.0 mph35.4 kmh 29.86 in1011.2 mb 0.00 in0.0 mm 0.00 in0.0 mm 0.00 in0.0 mm
02:25 AM 42.6°F5.9°C 31.7°F-0.2°C 65% 13.9 mph NE22.4 kmh NE 29.0 mph46.7 kmh 29.86 in1011.2 mb 0.00 in0.0 mm 0.00 in0.0 mm 0.00 in0.0 mm
02:20 AM 42.6°F5.9°C 31.7°F-0.2°C 65% 13.1 mph NE21.1 kmh NE 29.0 mph46.7 kmh 29.86 in1011.2 mb 0.00 in0.0 mm 0.00 in0.0 mm 0.00 in0.0 mm
02:15 AM 42.5°F5.8°C 31.9°F-0.1°C 66% 12.8 mph NE20.6 kmh NE 24.0 mph38.6 kmh 29.86 in1011.2 mb 0.00 in0.0 mm 0.00 in0.0 mm 0.00 in0.0 mm
02:10 AM 42.5°F5.8°C 31.9°F-0.1°C 66% 13.6 mph NE21.9 kmh NE 24.0 mph38.6 kmh 29.86 in1011.2 mb 0.00 in0.0 mm 0.00 in0.0 mm 0.00 in0.0 mm
02:05 AM 42.5°F5.8°C 31.9°F-0.1°C 66% 13.6 mph NE21.9 kmh NE 22.0 mph35.4 kmh 29.86 in1011.2 mb 0.00 in0.0 mm 0.00 in0.0 mm 0.00 in0.0 mm
02:00 AM 42.4°F5.8°C 31.8°F-0.1°C 66% 12.7 mph NE20.4 kmh NE 25.0 mph40.2 kmh 29.85 in1010.8 mb 0.00 in0.0 mm 0.00 in0.0 mm 0.00 in0.0 mm
01:55 AM 42.4°F5.8°C 31.8°F-0.1°C 66% 12.1 mph NE19.5 kmh NE 25.0 mph40.2 kmh 29.86 in1011.2 mb 0.00 in0.0 mm 0.00 in0.0 mm 0.00 in0.0 mm
01:50 AM 42.4°F5.8°C 32.2°F0.1°C 67% 12.2 mph NE19.6 kmh NE 23.0 mph37.0 kmh 29.85 in1010.8 mb 0.00 in0.0 mm 0.00 in0.0 mm 0.00 in0.0 mm
01:45 AM 42.3°F5.7°C 32.1°F0.1°C 67% 13.4 mph NE21.6 kmh NE 21.0 mph33.8 kmh 29.86 in1011.2 mb 0.00 in0.0 mm 0.00 in0.0 mm 0.00 in0.0 mm
01:40 AM 42.4°F5.8°C 32.2°F0.1°C 67% 14.5 mph NE23.3 kmh NE 25.0 mph40.2 kmh 29.85 in1010.8 mb 0.00 in0.0 mm 0.00 in0.0 mm 0.00 in0.0 mm
01:35 AM 42.3°F5.7°C 32.1°F0.1°C 67% 14.3 mph NE23.0 kmh NE 25.0 mph40.2 kmh 29.85 in1010.8 mb 0.00 in0.0 mm 0.00 in0.0 mm 0.00 in0.0 mm
01:30 AM 42.3°F5.7°C 32.1°F0.1°C 67% 13.5 mph NE21.7 kmh NE 22.0 mph35.4 kmh 29.86 in1011.2 mb 0.00 in0.0 mm 0.00 in0.0 mm 0.00 in0.0 mm
01:25 AM 42.4°F5.8°C 32.2°F0.1°C 67% 13.4 mph NE21.6 kmh NE 24.0 mph38.6 kmh 29.85 in1010.8 mb 0.00 in0.0 mm 0.00 in0.0 mm 0.00 in0.0 mm
01:20 AM 42.4°F5.8°C 32.2°F0.1°C 67% 13.8 mph NE22.2 kmh NE 25.0 mph40.2 kmh 29.86 in1011.2 mb 0.00 in0.0 mm 0.00 in0.0 mm 0.00 in0.0 mm
01:15 AM 42.4°F5.8°C 32.2°F0.1°C 67% 14.0 mph NE22.5 kmh NE 25.0 mph40.2 kmh 29.86 in1011.2 mb 0.00 in0.0 mm 0.00 in0.0 mm 0.00 in0.0 mm
01:10 AM 42.5°F5.8°C 32.3°F0.2°C 67% 14.0 mph NE22.5 kmh NE 23.0 mph37.0 kmh 29.86 in1011.2 mb 0.00 in0.0 mm 0.00 in0.0 mm 0.00 in0.0 mm
01:05 AM 42.5°F5.8°C 32.3°F0.2°C 67% 14.0 mph NE22.5 kmh NE 23.0 mph37.0 kmh 29.85 in1010.8 mb 0.00 in0.0 mm 0.00 in0.0 mm 0.00 in0.0 mm
01:00 AM 42.5°F5.8°C 31.9°F-0.1°C 66% 14.1 mph NE22.7 kmh NE 23.0 mph37.0 kmh 29.86 in1011.2 mb 0.00 in0.0 mm 0.00 in0.0 mm 0.00 in0.0 mm
12:55 AM 42.6°F5.9°C 32.0°F0.0°C 66% 14.6 mph NE23.5 kmh NE 23.0 mph37.0 kmh 29.86 in1011.2 mb 0.00 in0.0 mm 0.00 in0.0 mm 0.00 in0.0 mm
12:50 AM 42.6°F5.9°C 32.0°F0.0°C 66% 14.9 mph NE24.0 kmh NE 26.0 mph41.8 kmh 29.86 in1011.2 mb 0.00 in0.0 mm 0.00 in0.0 mm 0.00 in0.0 mm
12:45 AM 42.7°F5.9°C 32.1°F0.1°C 66% 13.9 mph NE22.4 kmh NE 29.0 mph46.7 kmh 29.86 in1011.2 mb 0.00 in0.0 mm 0.00 in0.0 mm 0.00 in0.0 mm
12:40 AM 42.7°F5.9°C 32.1°F0.1°C 66% 12.3 mph NE19.8 kmh NE 29.0 mph46.7 kmh 29.86 in1011.2 mb 0.00 in0.0 mm 0.00 in0.0 mm 0.00 in0.0 mm
12:35 AM 42.7°F5.9°C 32.1°F0.1°C 66% 11.4 mph NE18.3 kmh NE 24.0 mph38.6 kmh 29.86 in1011.2 mb 0.00 in0.0 mm 0.00 in0.0 mm 0.00 in0.0 mm
12:30 AM 42.6°F5.9°C 32.0°F0.0°C 66% 11.7 mph NE18.8 kmh NE 20.0 mph32.2 kmh 29.86 in1011.2 mb 0.00 in0.0 mm 0.00 in0.0 mm 0.00 in0.0 mm
12:25 AM 42.6°F5.9°C 32.0°F0.0°C 66% 12.5 mph NE20.1 kmh NE 20.0 mph32.2 kmh 29.87 in1011.5 mb 0.00 in0.0 mm 0.00 in0.0 mm 0.00 in0.0 mm
12:20 AM 42.6°F5.9°C 32.0°F0.0°C 66% 13.3 mph NE21.4 kmh NE 24.0 mph38.6 kmh 29.87 in1011.5 mb 0.00 in0.0 mm 0.00 in0.0 mm 0.00 in0.0 mm
12:15 AM 42.5°F5.8°C 32.3°F0.2°C 67% 13.6 mph NE21.9 kmh NE 24.0 mph38.6 kmh 29.86 in1011.2 mb 0.00 in0.0 mm 0.00 in0.0 mm 0.00 in0.0 mm
12:10 AM 42.5°F5.8°C 32.3°F0.2°C 67% 13.3 mph NE21.4 kmh NE 24.0 mph38.6 kmh 29.87 in1011.5 mb 0.00 in0.0 mm 0.00 in0.0 mm 0.00 in0.0 mm
12:05 AM 42.4°F5.8°C 32.2°F0.1°C 67% 12.3 mph NE19.8 kmh NE 25.0 mph40.2 kmh 29.86 in1011.2 mb 0.00 in0.0 mm 0.00 in0.0 mm 0.00 in0.0 mm
12:00 AM 42.4°F5.8°C 32.2°F0.1°C 67% 11.4 mph NE18.3 kmh NE 25.0 mph40.2 kmh 29.87 in1011.5 mb 0.00 in0.0 mm 0.00 in0.0 mm 0.00 in0.0 mm